Sonnblick Mtn, Austria
Current Conditions -  °F | °C
As of 3:20 AM on Saturday 25 Oct 2014 (Local Time) from LOWS Reporting Station
Clear Clear  
Wind Chill: 39°   Ceiling: Unl
Heat Index: 39°   Visibility: 6mi
Dew Point: 37°   Wind: 2mph
Humidity: 93%   Direction: NA
Pressure: 30.15"   Gusts: NA
Location:  47.05°N, 12.95°E
Report Text: LOWS 250120Z AUTO VRB02KT 9999 NCD 04/03 Q1021
Loading
Personal Weather Stations






























Interactive Weather Map
Tropical Storm Tracking
New forecast layout! Learn more

10-Day Weather Forecast

Advertisements
Track Severe Weather on mobile